createdAt,value
2018-11-25T10:03:36.515Z,14.11
2018-11-25T10:04:36.454Z,13.57
2018-11-25T10:05:36.522Z,12.98
2018-11-25T10:06:36.441Z,12.38
2018-11-25T10:07:36.523Z,11.49
2018-11-25T10:08:36.404Z,10.88
2018-11-25T10:09:36.544Z,10.31
2018-11-25T10:10:36.383Z,9.96
2018-11-25T10:11:36.456Z,9.58
2018-11-25T10:12:36.382Z,9.20
2018-11-25T10:13:36.429Z,9.01
2018-11-25T10:14:36.351Z,8.88
2018-11-25T10:15:36.395Z,8.58
2018-11-25T10:16:36.322Z,8.36
2018-11-25T10:17:36.362Z,8.10
2018-11-25T10:18:36.294Z,8.10
2018-11-25T10:19:36.370Z,7.85
2018-11-25T10:20:36.295Z,8.00
2018-11-25T10:21:36.299Z,7.84
2018-11-25T10:22:36.245Z,7.62
2018-11-25T10:23:36.269Z,7.45
2018-11-25T10:24:36.226Z,7.42
2018-11-25T10:25:36.274Z,7.42
2018-11-25T10:26:36.203Z,7.39
2018-11-25T10:27:36.307Z,7.39
2018-11-25T10:28:36.183Z,7.34
2018-11-25T10:29:36.273Z,7.42
2018-11-25T10:30:36.179Z,7.39
2018-11-25T10:31:36.245Z,7.45
2018-11-25T10:32:36.133Z,7.41
2018-11-25T10:33:36.221Z,7.39
2018-11-25T10:34:36.123Z,7.39
2018-11-25T10:35:36.219Z,7.57
2018-11-25T10:36:36.087Z,7.51
2018-11-25T10:37:36.156Z,7.47
2018-11-25T10:38:36.063Z,7.37
2018-11-25T10:39:36.113Z,7.18
2018-11-25T10:40:36.124Z,7.14
2018-11-25T10:41:36.224Z,7.09
2018-11-25T10:42:36.023Z,7.05
2018-11-25T10:43:36.053Z,6.89
2018-11-25T10:44:35.995Z,6.89
2018-11-25T10:45:36.023Z,6.81
2018-11-25T10:46:35.999Z,6.76
2018-11-25T10:47:36.091Z,6.78
2018-11-25T10:48:35.958Z,6.71
2018-11-25T10:49:36.055Z,6.75
2018-11-25T10:50:35.960Z,6.79
2018-11-25T10:51:36.031Z,6.87
2018-11-25T10:52:35.914Z,6.79
2018-11-25T10:53:35.991Z,6.82
2018-11-25T10:54:35.885Z,6.82
2018-11-25T10:55:36.005Z,6.79
2018-11-25T10:56:35.867Z,6.76
2018-11-25T10:57:35.926Z,6.93
2018-11-25T10:58:35.845Z,6.91
2018-11-25T10:59:36.936Z,6.90
2018-11-25T11:00:36.172Z,6.89
2018-11-25T11:01:35.871Z,6.89
2018-11-25T11:02:35.812Z,6.87
2018-11-25T11:03:35.830Z,6.89
2018-11-25T11:04:35.773Z,6.81
2018-11-25T11:05:35.858Z,6.82
2018-11-25T11:06:35.758Z,6.79
2018-11-25T11:07:35.866Z,6.89
2018-11-25T11:08:35.731Z,6.99
2018-11-25T11:09:43.821Z,7.08
2018-11-25T11:10:35.784Z,7.08
2018-11-25T11:11:35.808Z,7.16
2018-11-25T11:12:35.689Z,7.27
2018-11-25T11:13:35.780Z,7.34
2018-11-25T11:14:35.670Z,7.42
2018-11-25T11:15:35.771Z,7.51
2018-11-25T11:16:35.642Z,7.39
2018-11-25T11:17:35.719Z,7.41
2018-11-25T11:18:35.621Z,7.48
2018-11-25T11:19:35.679Z,7.51
2018-11-25T11:20:35.624Z,7.37
2018-11-25T11:21:35.649Z,7.37
2018-11-25T11:22:35.581Z,7.39
2018-11-25T11:23:35.622Z,7.42
2018-11-25T11:24:35.560Z,7.41
2018-11-25T11:25:35.621Z,7.41
2018-11-25T11:26:35.537Z,7.41
2018-11-25T11:27:35.553Z,7.41
2018-11-25T11:28:35.515Z,7.37
2018-11-25T11:29:35.623Z,7.33
2018-11-25T11:30:35.511Z,7.32
2018-11-25T11:31:35.603Z,7.23
2018-11-25T11:32:35.464Z,7.19
2018-11-25T11:33:35.555Z,7.09
2018-11-25T11:34:35.447Z,7.09
2018-11-25T11:35:35.642Z,7.08
2018-11-25T11:36:35.427Z,7.11
2018-11-25T11:37:35.493Z,6.99
2018-11-25T11:38:35.427Z,7.09
2018-11-25T11:39:35.466Z,6.99
2018-11-25T11:40:35.408Z,7.04
2018-11-25T11:41:35.429Z,6.96
2018-11-25T11:42:35.357Z,7.00
2018-11-25T11:43:35.441Z,7.00
2018-11-25T11:44:35.335Z,7.04
2018-11-25T11:45:35.408Z,6.89
2018-11-25T11:46:35.308Z,6.86
2018-11-25T11:47:35.332Z,6.61
2018-11-25T11:48:35.289Z,6.72
2018-11-25T11:49:35.403Z,6.69
2018-11-25T11:50:35.299Z,6.65
2018-11-25T11:51:35.376Z,6.76
2018-11-25T11:52:35.251Z,6.72
2018-11-25T11:53:35.342Z,6.81
2018-11-25T11:54:35.254Z,6.89
2018-11-25T11:55:35.367Z,6.94
2018-11-25T11:56:40.194Z,7.00
2018-11-25T11:57:36.303Z,6.97
2018-11-25T11:58:35.180Z,6.97
2018-11-25T11:59:35.249Z,7.09
2018-11-25T12:00:35.157Z,7.01
2018-11-25T12:01:35.252Z,6.97
2018-11-25T12:02:35.153Z,6.93
2018-11-25T12:03:35.184Z,6.78
2018-11-25T12:04:35.118Z,6.76
2018-11-25T12:05:35.146Z,6.69
2018-11-25T12:06:35.134Z,6.69
2018-11-25T12:07:35.125Z,6.72
2018-11-25T12:08:35.068Z,6.64
2018-11-25T12:09:36.110Z,6.53
2018-11-25T12:10:35.054Z,6.57
2018-11-25T12:11:35.082Z,6.54
2018-11-25T12:12:35.026Z,6.55
2018-11-25T12:13:35.124Z,6.51
2018-11-25T12:14:35.008Z,6.57
2018-11-25T12:15:36.130Z,6.55
2018-11-25T12:16:35.002Z,6.53
2018-11-25T12:17:35.060Z,6.57
2018-11-25T12:18:34.964Z,6.48
2018-11-25T12:19:36.079Z,6.54
2018-11-25T12:20:34.967Z,6.51
2018-11-25T12:21:35.046Z,6.48
2018-11-25T12:22:34.914Z,6.43
2018-11-25T12:23:34.966Z,6.51
2018-11-25T12:24:34.904Z,6.53
2018-11-25T12:25:34.944Z,6.45
2018-11-25T12:26:34.892Z,6.40
2018-11-25T12:27:34.906Z,6.45
2018-11-25T12:28:34.853Z,6.45
2018-11-25T12:29:34.865Z,6.54
2018-11-25T12:30:34.838Z,6.50
2018-11-25T12:31:34.874Z,6.54
2018-11-25T12:32:34.821Z,6.51
2018-11-25T12:33:34.923Z,6.53
2018-11-25T12:34:34.787Z,6.51
2018-11-25T12:35:42.859Z,6.48
2018-11-25T12:36:34.788Z,6.54
2018-11-25T12:37:36.059Z,6.60
2018-11-25T12:38:34.746Z,6.58
2018-11-25T12:39:34.810Z,6.51
2018-11-25T12:40:34.720Z,6.71
2018-11-25T12:41:34.816Z,6.54
2018-11-25T12:42:34.702Z,6.60
2018-11-25T12:43:35.764Z,6.58
2018-11-25T12:44:34.668Z,6.54
2018-11-25T12:45:34.771Z,6.55
2018-11-25T12:46:34.681Z,6.54
2018-11-25T12:47:34.718Z,6.48
2018-11-25T12:48:34.623Z,6.40
2018-11-25T12:49:34.656Z,6.42
2018-11-25T12:50:34.606Z,6.43
2018-11-25T12:51:35.646Z,6.48
2018-11-25T12:52:34.604Z,6.46
2018-11-25T12:53:34.696Z,6.53
2018-11-25T12:54:34.564Z,6.46
2018-11-25T12:55:34.664Z,6.50
2018-11-25T12:56:34.538Z,6.54
2018-11-25T12:57:34.656Z,6.63
2018-11-25T12:58:34.516Z,6.50
2018-11-25T12:59:34.614Z,6.68
2018-11-25T13:00:34.504Z,6.57
2018-11-25T13:01:34.571Z,6.54
2018-11-25T13:02:34.489Z,6.54
2018-11-25T13:03:34.533Z,6.53
2018-11-25T13:04:34.465Z,6.54
2018-11-25T13:05:34.493Z,6.57
2018-11-25T13:06:34.450Z,6.53
2018-11-25T13:07:34.509Z,6.55
2018-11-25T13:08:34.409Z,6.48
2018-11-25T13:09:34.434Z,6.50
2018-11-25T13:10:34.403Z,6.58
2018-11-25T13:11:34.402Z,6.54
2018-11-25T13:12:34.373Z,6.58
2018-11-25T13:13:34.454Z,6.55
2018-11-25T13:14:34.343Z,6.55
2018-11-25T13:15:34.440Z,6.51
2018-11-25T13:16:34.329Z,6.43
2018-11-25T13:17:34.429Z,6.43
2018-11-25T13:18:35.774Z,6.25
2018-11-25T13:19:34.377Z,6.30
2018-11-25T13:20:34.272Z,6.20
2018-11-25T13:21:34.388Z,6.19
2018-11-25T13:22:34.264Z,6.14
2018-11-25T13:23:34.311Z,6.24
2018-11-25T13:24:34.231Z,6.13
2018-11-25T13:25:34.286Z,6.14
2018-11-25T13:26:34.230Z,6.17
2018-11-25T13:27:34.247Z,6.19
2018-11-25T13:28:34.208Z,6.17
2018-11-25T13:29:34.219Z,6.24
2018-11-25T13:30:34.165Z,6.27
2018-11-25T13:31:35.318Z,6.28
2018-11-25T13:32:34.139Z,6.30
2018-11-25T13:33:35.211Z,6.33
2018-11-25T13:34:34.130Z,6.27
2018-11-25T13:35:38.107Z,6.28
2018-11-25T13:36:34.110Z,6.32
2018-11-25T13:37:34.190Z,6.35
2018-11-25T13:38:34.093Z,6.33
2018-11-25T13:39:36.108Z,6.32
2018-11-25T13:40:34.056Z,6.33
2018-11-25T13:41:34.174Z,6.38
2018-11-25T13:42:34.025Z,6.30
2018-11-25T13:43:34.149Z,6.46
2018-11-25T13:44:34.015Z,6.36
2018-11-25T13:45:34.062Z,6.38
2018-11-25T13:46:34.020Z,6.33
2018-11-25T13:47:34.032Z,6.39
2018-11-25T13:48:34.032Z,6.32
2018-11-25T13:49:34.016Z,6.33
2018-11-25T13:50:33.938Z,6.36
2018-11-25T13:51:33.970Z,6.39
2018-11-25T13:52:33.921Z,6.36
2018-11-25T13:53:34.002Z,6.33
2018-11-25T13:54:33.898Z,6.36
2018-11-25T13:55:35.576Z,6.36
2018-11-25T13:56:33.906Z,6.36
2018-11-25T13:57:33.972Z,6.42
2018-11-25T13:58:33.885Z,6.42
2018-11-25T13:59:33.943Z,6.38
2018-11-25T14:00:34.685Z,6.35
2018-11-25T14:01:33.907Z,6.36
2018-11-25T14:02:33.810Z,6.36
2018-11-25T14:03:33.897Z,6.36
2018-11-25T14:04:33.816Z,6.35
2018-11-25T14:05:33.850Z,6.35
2018-11-25T14:06:33.760Z,6.38
2018-11-25T14:07:33.815Z,6.39
2018-11-25T14:08:34.643Z,6.42
2018-11-25T14:09:33.840Z,6.35
2018-11-25T14:10:33.719Z,6.36
2018-11-25T14:11:33.762Z,6.36
2018-11-25T14:12:33.699Z,6.40
2018-11-25T14:13:40.772Z,6.33
2018-11-25T14:14:33.684Z,6.36
2018-11-25T14:15:33.696Z,6.30
2018-11-25T14:16:34.941Z,6.28
2018-11-25T14:17:33.693Z,6.39
2018-11-25T14:18:33.664Z,6.30
2018-11-25T14:19:33.731Z,6.27
2018-11-25T14:20:33.616Z,6.32
2018-11-25T14:21:33.690Z,6.30
2018-11-25T14:22:33.605Z,6.35
2018-11-25T14:23:33.662Z,6.25
2018-11-25T14:24:33.574Z,6.20
2018-11-25T14:25:33.632Z,6.19
2018-11-25T14:26:33.535Z,6.27
2018-11-25T14:27:33.598Z,6.30
2018-11-25T14:28:33.509Z,6.25
2018-11-25T14:29:33.611Z,6.14
2018-11-25T14:30:33.512Z,6.11
2018-11-25T14:31:33.535Z,6.21
2018-11-25T14:32:33.464Z,6.14
2018-11-25T14:33:34.531Z,6.17
2018-11-25T14:34:33.477Z,6.11
2018-11-25T14:35:33.570Z,6.13
2018-11-25T14:36:33.460Z,6.24
2018-11-25T14:37:33.446Z,6.24
2018-11-25T14:38:33.406Z,6.14
2018-11-25T14:39:33.451Z,6.20
2018-11-25T14:40:33.390Z,6.11
2018-11-25T14:41:33.480Z,6.20
2018-11-25T14:42:33.378Z,6.13
2018-11-25T14:43:33.447Z,6.14
2018-11-25T14:44:33.333Z,6.14
2018-11-25T14:45:33.415Z,6.02
2018-11-25T14:46:33.308Z,6.08
2018-11-25T14:47:33.437Z,6.03
2018-11-25T14:48:33.301Z,6.02
2018-11-25T14:49:33.349Z,6.08
2018-11-25T14:50:33.288Z,6.03
2018-11-25T14:51:33.325Z,6.08
2018-11-25T14:52:33.246Z,6.03
2018-11-25T14:53:33.285Z,6.01
2018-11-25T14:54:33.234Z,5.99
2018-11-25T14:55:33.292Z,6.03
2018-11-25T14:56:33.206Z,5.98
2018-11-25T14:57:33.221Z,6.01
2018-11-25T14:58:33.191Z,6.03
2018-11-25T14:59:33.300Z,6.01
2018-11-25T15:00:33.179Z,5.96
2018-11-25T15:01:33.261Z,5.95
2018-11-25T15:02:33.132Z,5.99
2018-11-25T15:03:34.147Z,5.95
2018-11-25T15:04:36.288Z,5.87
2018-11-25T15:05:33.244Z,5.92
2018-11-25T15:06:33.083Z,5.99
2018-11-25T15:07:33.163Z,5.95
2018-11-25T15:08:33.079Z,5.92
2018-11-25T15:09:33.141Z,5.90
2018-11-25T15:10:33.074Z,5.92
2018-11-25T15:11:33.110Z,6.05
2018-11-25T15:12:33.037Z,5.93
2018-11-25T15:13:33.077Z,6.02
2018-11-25T15:14:33.014Z,5.96
2018-11-25T15:15:33.100Z,6.01
2018-11-25T15:16:32.974Z,6.01
2018-11-25T15:17:33.012Z,6.01
2018-11-25T15:18:32.953Z,6.08
2018-11-25T15:19:32.968Z,6.05
2018-11-25T15:20:32.952Z,5.95
2018-11-25T15:21:33.066Z,5.90
2018-11-25T15:22:32.909Z,5.99
2018-11-25T15:23:33.007Z,5.93
2018-11-25T15:24:32.895Z,5.99
2018-11-25T15:25:33.022Z,5.90
2018-11-25T15:26:32.875Z,6.01
2018-11-25T15:27:32.980Z,5.90
2018-11-25T15:28:32.843Z,5.92
2018-11-25T15:29:32.911Z,5.95
2018-11-25T15:30:32.823Z,5.95
2018-11-25T15:31:32.927Z,5.81
2018-11-25T15:32:32.812Z,5.81
2018-11-25T15:33:32.845Z,5.95
2018-11-25T15:34:32.788Z,5.92
2018-11-25T15:35:32.892Z,5.93
2018-11-25T15:36:32.775Z,5.90
2018-11-25T15:37:32.789Z,5.96
2018-11-25T15:38:32.750Z,5.93
2018-11-25T15:39:32.772Z,5.87
2018-11-25T15:40:32.725Z,5.96
2018-11-25T15:41:32.766Z,6.03
2018-11-25T15:42:32.691Z,5.92
2018-11-25T15:43:32.798Z,6.02
2018-11-25T15:44:32.678Z,5.95
2018-11-25T15:45:32.761Z,5.90
2018-11-25T15:46:32.677Z,6.02
2018-11-25T15:47:32.727Z,5.90
2018-11-25T15:48:32.620Z,5.92
2018-11-25T15:49:33.735Z,5.85
2018-11-25T15:50:32.611Z,5.83
2018-11-25T15:51:32.702Z,5.80
2018-11-25T15:52:32.617Z,5.78
2018-11-25T15:53:32.651Z,5.83
2018-11-25T15:54:32.551Z,5.87
2018-11-25T15:55:32.599Z,5.87
2018-11-25T15:56:32.585Z,5.83
2018-11-25T15:57:32.619Z,5.74
2018-11-25T15:58:32.530Z,5.73
2018-11-25T15:59:32.536Z,5.63
2018-11-25T16:00:32.489Z,5.59
2018-11-25T16:01:32.545Z,5.67
2018-11-25T16:02:32.471Z,5.60
2018-11-25T16:03:32.594Z,5.70
2018-11-25T16:04:32.447Z,5.67
2018-11-25T16:05:32.562Z,5.77
2018-11-25T16:06:32.460Z,5.74
2018-11-25T16:07:32.508Z,5.74
2018-11-25T16:08:37.991Z,5.69
2018-11-25T16:09:33.508Z,5.70
2018-11-25T16:10:32.416Z,5.75
2018-11-25T16:11:32.511Z,5.62
2018-11-25T16:12:32.378Z,5.65
2018-11-25T16:13:32.426Z,5.67
2018-11-25T16:14:32.343Z,5.62
2018-11-25T16:15:32.390Z,5.65
2018-11-25T16:16:32.361Z,5.65
2018-11-25T16:17:32.407Z,5.66
2018-11-25T16:18:32.283Z,5.63
2018-11-25T16:19:32.334Z,5.67
2018-11-25T16:20:32.268Z,5.63
2018-11-25T16:21:32.292Z,5.63
2018-11-25T16:22:32.276Z,5.59
2018-11-25T16:23:32.255Z,5.74
2018-11-25T16:24:32.227Z,5.66
2018-11-25T16:25:32.332Z,5.74
2018-11-25T16:26:32.208Z,5.75
2018-11-25T16:27:32.338Z,5.69
2018-11-25T16:28:32.197Z,5.69
2018-11-25T16:29:34.228Z,5.67
2018-11-25T16:30:32.158Z,5.70
2018-11-25T16:31:47.171Z,5.74
2018-11-25T16:32:32.153Z,5.67
2018-11-25T16:33:32.208Z,5.66
2018-11-25T16:34:32.105Z,5.63
2018-11-25T16:35:32.172Z,5.67
2018-11-25T16:36:32.088Z,5.70
2018-11-25T16:37:32.190Z,5.67
2018-11-25T16:38:32.077Z,5.74
2018-11-25T16:39:32.124Z,5.66
2018-11-25T16:40:32.061Z,5.69
2018-11-25T16:41:32.068Z,5.62
2018-11-25T16:42:32.057Z,5.67
2018-11-25T16:43:32.038Z,5.63
2018-11-25T16:44:32.001Z,5.67
2018-11-25T16:45:32.119Z,5.63
2018-11-25T16:46:31.988Z,5.59
2018-11-25T16:47:32.113Z,5.66
2018-11-25T16:48:31.955Z,5.62
2018-11-25T16:49:33.335Z,5.69
2018-11-25T16:50:31.932Z,5.63
2018-11-25T16:51:32.025Z,5.63
2018-11-25T16:52:31.936Z,5.60
2018-11-25T16:53:31.992Z,5.58
2018-11-25T16:54:31.889Z,5.55
2018-11-25T16:55:31.954Z,5.59
2018-11-25T16:56:31.869Z,5.60
2018-11-25T16:57:31.963Z,5.51
2018-11-25T16:58:31.864Z,5.58
2018-11-25T16:59:31.911Z,5.58
2018-11-25T17:00:31.823Z,5.49
2018-11-25T17:01:31.852Z,5.60
2018-11-25T17:02:31.823Z,5.45
2018-11-25T17:03:31.819Z,5.51
2018-11-25T17:04:31.785Z,5.49
2018-11-25T17:05:31.789Z,5.49
2018-11-25T17:06:31.767Z,5.49
2018-11-25T17:07:31.790Z,5.56
2018-11-25T17:08:31.739Z,5.52
2018-11-25T17:09:31.860Z,5.52
2018-11-25T17:10:31.709Z,5.51
2018-11-25T17:11:31.818Z,5.55
2018-11-25T17:12:31.705Z,5.55
2018-11-25T17:13:31.776Z,5.47
2018-11-25T17:14:33.830Z,5.49
2018-11-25T17:15:31.733Z,5.56
2018-11-25T17:16:31.638Z,5.52
2018-11-25T17:17:31.804Z,5.58
2018-11-25T17:18:31.621Z,5.58
2018-11-25T17:19:31.667Z,5.55
2018-11-25T17:20:31.599Z,5.58
2018-11-25T17:21:31.637Z,5.62
2018-11-25T17:22:31.605Z,5.60
2018-11-25T17:23:31.639Z,5.63
2018-11-25T17:24:31.579Z,5.60
2018-11-25T17:25:31.579Z,5.73
2018-11-25T17:26:31.530Z,5.69
2018-11-25T17:27:31.587Z,5.70
2018-11-25T17:28:31.510Z,5.65
2018-11-25T17:29:31.620Z,5.59
2018-11-25T17:30:31.489Z,5.60
2018-11-25T17:31:31.598Z,5.66
2018-11-25T17:32:31.476Z,5.60
2018-11-25T17:33:31.585Z,5.63
2018-11-25T17:34:31.471Z,5.62
2018-11-25T17:35:31.537Z,5.56
2018-11-25T17:36:31.435Z,5.63
2018-11-25T17:37:31.501Z,5.59
2018-11-25T17:38:31.424Z,5.69
2018-11-25T17:39:31.467Z,5.70
2018-11-25T17:40:31.369Z,5.59
2018-11-25T17:41:31.421Z,5.60
2018-11-25T17:42:31.384Z,5.67
2018-11-25T17:43:31.426Z,5.66
2018-11-25T17:44:31.321Z,5.63
2018-11-25T17:45:31.357Z,5.65
2018-11-25T17:46:31.306Z,5.58
2018-11-25T17:47:31.324Z,5.59
2018-11-25T17:48:31.419Z,5.60
2018-11-25T17:49:31.293Z,5.52
2018-11-25T17:50:31.266Z,5.59
2018-11-25T17:51:31.363Z,5.48
2018-11-25T17:52:31.235Z,5.49
2018-11-25T17:53:31.271Z,5.44
2018-11-25T17:54:31.219Z,5.48
2018-11-25T17:55:31.294Z,5.51
2018-11-25T17:56:31.190Z,5.37
2018-11-25T17:57:32.304Z,5.35
2018-11-25T17:58:31.197Z,5.42
2018-11-25T17:59:33.278Z,5.33
2018-11-25T18:00:31.147Z,5.38
2018-11-25T18:01:32.249Z,5.41
2018-11-25T18:02:31.130Z,5.27
2018-11-25T18:03:31.219Z,5.38
2018-11-25T18:04:31.107Z,5.44
2018-11-25T18:05:38.472Z,5.44
2018-11-25T18:06:32.079Z,5.47
2018-11-25T18:07:32.135Z,5.44
2018-11-25T18:08:31.118Z,5.45
2018-11-25T18:09:31.080Z,5.44
2018-11-25T18:10:31.053Z,5.47
2018-11-25T18:11:31.167Z,5.42
2018-11-25T18:12:31.025Z,5.47
2018-11-25T18:13:31.154Z,5.55
2018-11-25T18:14:30.999Z,5.49
2018-11-25T18:15:31.094Z,5.47
2018-11-25T18:16:30.995Z,5.48
2018-11-25T18:17:31.059Z,5.47
2018-11-25T18:18:30.966Z,5.52
2018-11-25T18:19:31.024Z,5.48
2018-11-25T18:20:30.930Z,5.47
2018-11-25T18:21:30.987Z,5.45
2018-11-25T18:22:30.905Z,5.45
2018-11-25T18:23:30.961Z,5.37
2018-11-25T18:24:30.899Z,5.37
2018-11-25T18:25:31.946Z,5.37
2018-11-25T18:26:30.876Z,5.38
2018-11-25T18:27:31.921Z,5.40
2018-11-25T18:28:30.849Z,5.42
2018-11-25T18:29:30.901Z,5.33
2018-11-25T18:30:30.818Z,5.44
2018-11-25T18:31:30.822Z,5.37
2018-11-25T18:32:30.793Z,5.37
2018-11-25T18:33:30.833Z,5.38
2018-11-25T18:34:30.803Z,5.37
2018-11-25T18:35:31.788Z,5.35
2018-11-25T18:36:30.756Z,5.41
2018-11-25T18:37:30.837Z,5.35
2018-11-25T18:38:30.733Z,5.52
2018-11-25T18:39:30.839Z,5.52
2018-11-25T18:40:30.706Z,5.41
2018-11-25T18:41:30.778Z,5.33
2018-11-25T18:42:30.689Z,5.33
2018-11-25T18:43:31.800Z,5.24
2018-11-25T18:44:30.668Z,5.32
2018-11-25T18:45:30.709Z,5.35
2018-11-25T18:46:30.653Z,5.32
2018-11-25T18:47:31.695Z,5.27
2018-11-25T18:48:30.642Z,5.29
2018-11-25T18:49:30.716Z,5.30
2018-11-25T18:50:30.594Z,5.33
2018-11-25T18:51:30.618Z,5.23
2018-11-25T18:52:30.572Z,5.27
2018-11-25T18:53:31.608Z,5.24
2018-11-25T18:54:30.584Z,5.41
2018-11-25T18:55:30.656Z,5.32
2018-11-25T18:56:30.527Z,5.33
2018-11-25T18:57:30.620Z,5.37
2018-11-25T18:58:30.529Z,5.40
2018-11-25T18:59:30.633Z,5.27
2018-11-25T19:00:30.489Z,5.27
2018-11-25T19:01:30.560Z,5.26
2018-11-25T19:02:30.469Z,5.29
2018-11-25T19:03:30.529Z,5.33
2018-11-25T19:04:30.463Z,5.32
2018-11-25T19:05:30.498Z,5.32
2018-11-25T19:06:30.428Z,5.26
2018-11-25T19:07:30.458Z,5.37
2018-11-25T19:08:30.403Z,5.38
2018-11-25T19:09:30.461Z,5.33
2018-11-25T19:10:30.370Z,5.40
2018-11-25T19:11:31.424Z,5.40
2018-11-25T19:12:30.362Z,5.37
2018-11-25T19:13:30.479Z,5.38
2018-11-25T19:14:30.363Z,5.38
2018-11-25T19:15:30.434Z,5.41
2018-11-25T19:16:30.336Z,5.35
2018-11-25T19:17:30.412Z,5.35
2018-11-25T19:18:30.306Z,5.37
2018-11-25T19:19:30.417Z,5.41
2018-11-25T19:20:30.257Z,5.35
2018-11-25T19:21:30.371Z,5.35
2018-11-25T19:22:30.237Z,5.37
2018-11-25T19:23:30.301Z,5.30
2018-11-25T19:24:30.219Z,5.33
2018-11-25T19:25:31.337Z,5.30
2018-11-25T19:26:30.205Z,5.41
2018-11-25T19:27:30.243Z,5.37
2018-11-25T19:28:30.170Z,5.33
2018-11-25T19:29:31.233Z,5.32
2018-11-25T19:30:30.183Z,5.30
2018-11-25T19:31:30.187Z,5.27
2018-11-25T19:32:30.129Z,5.24
2018-11-25T19:33:30.145Z,5.27
2018-11-25T19:34:30.105Z,5.37
2018-11-25T19:35:30.169Z,5.41
2018-11-25T19:36:30.094Z,5.35
2018-11-25T19:37:31.106Z,5.40
2018-11-25T19:38:30.083Z,5.30
2018-11-25T19:39:30.155Z,5.32
2018-11-25T19:40:30.057Z,5.32
2018-11-25T19:41:30.129Z,5.38
2018-11-25T19:42:30.020Z,5.35
2018-11-25T19:43:30.094Z,5.32
2018-11-25T19:44:30.013Z,5.40
2018-11-25T19:45:30.104Z,5.30
2018-11-25T19:46:29.991Z,5.37
2018-11-25T19:47:30.231Z,5.44
2018-11-25T19:48:29.953Z,5.45
2018-11-25T19:49:30.103Z,5.44
2018-11-25T19:50:29.986Z,5.47
2018-11-25T19:51:30.069Z,5.35
2018-11-25T19:52:29.904Z,5.37
2018-11-25T19:53:30.043Z,5.40
2018-11-25T19:54:29.894Z,5.30
2018-11-25T19:55:30.043Z,5.37
2018-11-25T19:56:29.869Z,5.27
2018-11-25T19:57:29.980Z,5.26
2018-11-25T19:58:29.841Z,5.32
2018-11-25T19:59:29.938Z,5.30
2018-11-25T20:00:29.835Z,5.26
2018-11-25T20:01:31.029Z,5.30
2018-11-25T20:02:29.806Z,5.26
2018-11-25T20:03:29.883Z,5.27
2018-11-25T20:04:29.806Z,5.30
2018-11-25T20:05:29.885Z,5.30
2018-11-25T20:06:29.763Z,5.30
2018-11-25T20:07:29.918Z,5.35
2018-11-25T20:08:29.733Z,5.49
2018-11-25T20:09:31.825Z,6.32
2018-11-25T20:10:29.737Z,7.08
2018-11-25T20:11:29.756Z,7.92
2018-11-25T20:12:29.690Z,8.36
2018-11-25T20:13:29.722Z,8.55
2018-11-25T20:14:29.677Z,8.31
2018-11-25T20:15:29.731Z,8.12
2018-11-25T20:16:29.648Z,7.86
2018-11-25T20:17:29.762Z,7.50
2018-11-25T20:18:29.611Z,7.19
2018-11-25T20:19:29.729Z,6.91
2018-11-25T20:20:29.657Z,6.81
2018-11-25T20:21:29.689Z,6.63
2018-11-25T20:22:29.579Z,6.45
2018-11-25T20:23:29.755Z,6.28
2018-11-25T20:24:29.551Z,6.06
2018-11-25T20:25:29.660Z,5.95
2018-11-25T20:26:29.543Z,5.74
2018-11-25T20:27:29.601Z,5.67
2018-11-25T20:28:29.504Z,5.63
2018-11-25T20:29:29.670Z,5.56
2018-11-25T20:30:29.492Z,5.49
2018-11-25T20:31:29.585Z,5.42
2018-11-25T20:32:29.455Z,5.30
2018-11-25T20:33:29.608Z,5.37
2018-11-25T20:34:29.443Z,5.17
2018-11-25T20:35:29.567Z,5.19
2018-11-25T20:36:29.455Z,5.12
2018-11-25T20:37:29.546Z,5.12
2018-11-25T20:38:29.398Z,5.09
2018-11-25T20:39:29.505Z,5.05
2018-11-25T20:40:29.404Z,5.06
2018-11-25T20:41:29.530Z,5.06
2018-11-25T20:42:29.364Z,4.99
2018-11-25T20:43:29.446Z,4.96
2018-11-25T20:44:29.336Z,5.08
2018-11-25T20:45:29.413Z,5.02
2018-11-25T20:46:29.340Z,5.12
2018-11-25T20:47:29.508Z,5.01
2018-11-25T20:48:29.311Z,5.02
2018-11-25T20:49:29.337Z,5.05
2018-11-25T20:50:29.267Z,5.15
2018-11-25T20:51:29.466Z,5.12
2018-11-25T20:52:29.240Z,5.09
2018-11-25T20:53:30.298Z,5.12
2018-11-25T20:54:29.218Z,5.14
2018-11-25T20:55:29.368Z,5.11
2018-11-25T20:56:29.248Z,4.97
2018-11-25T20:57:29.320Z,4.99
2018-11-25T20:58:29.205Z,4.99
2018-11-25T20:59:29.289Z,4.97
2018-11-25T21:00:29.162Z,4.99
2018-11-25T21:01:30.281Z,4.93
2018-11-25T21:02:29.501Z,4.93
2018-11-25T21:03:29.337Z,4.93
2018-11-25T21:04:29.120Z,4.94
2018-11-25T21:05:30.211Z,5.05
2018-11-25T21:06:29.090Z,5.05
2018-11-25T21:07:29.307Z,5.02
2018-11-25T21:08:29.056Z,4.99
2018-11-25T21:09:30.164Z,5.04
2018-11-25T21:10:29.036Z,5.05
2018-11-25T21:11:29.107Z,5.05
2018-11-25T21:12:29.029Z,5.01
2018-11-25T21:13:29.163Z,5.04
2018-11-25T21:14:28.989Z,5.01
2018-11-25T21:15:29.130Z,4.99
2018-11-25T21:16:28.959Z,4.99
2018-11-25T21:17:29.154Z,4.96
2018-11-25T21:18:28.936Z,4.97
2018-11-25T21:19:30.101Z,4.97
2018-11-25T21:20:28.919Z,5.04
2018-11-25T21:21:29.032Z,5.04
2018-11-25T21:22:29.035Z,4.99
2018-11-25T21:23:30.025Z,5.04
2018-11-25T21:24:28.876Z,5.02
2018-11-25T21:25:28.972Z,4.94
2018-11-25T21:26:28.869Z,4.93
2018-11-25T21:27:28.977Z,4.91
2018-11-25T21:28:28.839Z,4.88
2018-11-25T21:29:29.316Z,4.88
2018-11-25T21:30:28.858Z,4.93
2018-11-25T21:31:28.992Z,4.96
2018-11-25T21:32:28.799Z,4.91
2018-11-25T21:33:28.842Z,5.01
2018-11-25T21:34:29.856Z,4.97
2018-11-25T21:35:28.928Z,4.94
2018-11-25T21:36:28.738Z,4.88
2018-11-25T21:37:28.816Z,4.99
2018-11-25T21:38:28.708Z,4.94
2018-11-25T21:39:28.848Z,4.90
2018-11-25T21:40:28.698Z,4.99
2018-11-25T21:41:28.816Z,4.93
2018-11-25T21:42:29.566Z,4.94
2018-11-25T21:43:28.804Z,4.91
2018-11-25T21:44:29.510Z,4.93
2018-11-25T21:45:28.760Z,4.91
2018-11-25T21:46:29.164Z,4.87
2018-11-25T21:47:28.756Z,4.94
2018-11-25T21:48:28.605Z,4.84
2018-11-25T21:49:29.709Z,4.84
2018-11-25T21:50:28.590Z,4.86
2018-11-25T21:51:28.660Z,4.86
2018-11-25T21:52:28.557Z,4.86
2018-11-25T21:53:29.692Z,4.83
2018-11-25T21:54:28.530Z,4.86
2018-11-25T21:55:30.641Z,4.88
2018-11-25T21:56:28.518Z,4.86
2018-11-25T21:57:28.669Z,4.80
2018-11-25T21:58:28.894Z,4.86
2018-11-25T21:59:28.632Z,4.84
2018-11-25T22:00:28.478Z,4.86
2018-11-25T22:01:28.610Z,4.74
2018-11-25T22:02:28.450Z,4.75
2018-11-25T22:03:28.606Z,4.79
2018-11-25T22:04:28.421Z,4.79
2018-11-25T22:05:28.543Z,4.75
2018-11-25T22:06:28.411Z,4.74
2018-11-25T22:07:28.502Z,4.83
2018-11-25T22:08:28.429Z,4.69
2018-11-25T22:09:28.468Z,4.75
2018-11-25T22:10:28.356Z,4.72
2018-11-25T22:11:28.442Z,4.69
2018-11-25T22:12:28.336Z,4.75
2018-11-25T22:13:28.445Z,4.75
2018-11-25T22:14:28.307Z,4.64
2018-11-25T22:15:28.490Z,4.62
2018-11-25T22:16:28.295Z,4.57
2018-11-25T22:17:28.342Z,4.59
2018-11-25T22:18:28.312Z,4.59
2018-11-25T22:19:28.424Z,4.53
2018-11-25T22:20:28.289Z,4.56
2018-11-25T22:21:28.380Z,4.50
2018-11-25T22:22:28.218Z,4.57
2018-11-25T22:23:28.364Z,4.69
2018-11-25T22:24:28.244Z,4.64
2018-11-25T22:25:28.325Z,4.53
2018-11-25T22:26:28.199Z,4.64
2018-11-25T22:27:28.288Z,4.57
2018-11-25T22:28:28.180Z,4.56
2018-11-25T22:29:29.315Z,4.47
2018-11-25T22:30:28.151Z,4.46
2018-11-25T22:31:29.247Z,4.44
2018-11-25T22:32:28.115Z,4.44
2018-11-25T22:33:28.307Z,4.47
2018-11-25T22:34:28.108Z,4.43
2018-11-25T22:35:28.160Z,4.43
2018-11-25T22:36:28.062Z,4.46
2018-11-25T22:37:28.237Z,4.32
2018-11-25T22:38:28.074Z,4.32
2018-11-25T22:39:29.121Z,4.28
2018-11-25T22:40:28.017Z,4.34
2018-11-25T22:41:28.175Z,4.34
2018-11-25T22:42:28.032Z,4.39
2018-11-25T22:43:28.181Z,4.35
2018-11-25T22:44:27.985Z,4.32
2018-11-25T22:45:28.003Z,4.31
2018-11-25T22:46:27.962Z,4.26
2018-11-25T22:47:28.066Z,4.31
2018-11-25T22:48:27.956Z,4.32
2018-11-25T22:49:28.043Z,4.25
2018-11-25T22:50:27.908Z,4.31
2018-11-25T22:51:28.014Z,4.26
2018-11-25T22:52:27.883Z,4.29
2018-11-25T22:53:27.973Z,4.32
2018-11-25T22:54:27.890Z,4.25
2018-11-25T22:55:28.052Z,4.25
2018-11-25T22:56:27.855Z,4.25
2018-11-25T22:57:27.913Z,4.20
2018-11-25T22:58:27.817Z,4.25
2018-11-25T22:59:28.023Z,4.26
2018-11-25T23:00:27.791Z,4.16
2018-11-25T23:01:27.948Z,4.25
2018-11-25T23:02:27.791Z,4.25
2018-11-25T23:03:27.919Z,4.17
2018-11-25T23:04:27.778Z,4.16
2018-11-25T23:05:27.882Z,4.14
2018-11-25T23:06:27.729Z,4.10
2018-11-25T23:07:27.751Z,4.11
2018-11-25T23:08:27.705Z,4.10
2018-11-25T23:09:27.828Z,4.10
2018-11-25T23:10:27.699Z,4.06
2018-11-25T23:11:27.792Z,4.00
2018-11-25T23:12:27.664Z,4.06
2018-11-25T23:13:27.770Z,3.96
2018-11-25T23:14:27.640Z,4.06
2018-11-25T23:15:27.770Z,3.96
2018-11-25T23:16:27.615Z,3.99
2018-11-25T23:17:27.803Z,3.92
2018-11-25T23:18:27.612Z,3.89
2018-11-25T23:19:27.702Z,3.92
2018-11-25T23:20:27.599Z,3.82
2018-11-25T23:21:29.778Z,3.81